Time;durP1;ratioP1;P1;durP2;ratioP2;P2;SDS_P1;SDS_P2;PMS_P1;PMS_P2;Temp;Humidity;BMP_temperature;BMP_pressure;BME280_temperature;BME280_humidity;BME280_pressure;Samples;Min_cycle;Max_cycle;Signal;HPM_P1;HPM_P2
2022/09/27 00:00:36;;;;;;;21.35;13.78;;;;;;;11.54;100.00;99089.98;1753608;81;21121;-66
2022/09/27 00:03:03;;;;;;;18.92;14.15;;;;;;;11.54;100.00;99083.86;1753311;81;21485;-66
2022/09/27 00:05:30;;;;;;;17.80;13.75;;;;;;;11.52;100.00;99082.62;1753438;81;21001;-66
2022/09/27 00:07:57;;;;;;;21.27;13.72;;;;;;;11.54;100.00;99088.66;1753448;81;21033;-66
2022/09/27 00:10:24;;;;;;;22.93;13.90;;;;;;;11.58;100.00;99083.23;1753486;81;21107;-66
2022/09/27 00:12:51;;;;;;;19.30;14.40;;;;;;;11.53;100.00;99071.16;1750952;81;21265;-66
2022/09/27 00:15:19;;;;;;;23.83;14.40;;;;;;;11.56;100.00;99072.77;1747547;82;21017;-67
2022/09/27 00:17:50;;;;;;;22.00;14.53;;;;;;;11.51;100.00;99076.98;1747581;81;21092;-66
2022/09/27 00:20:15;;;;;;;19.48;14.47;;;;;;;11.51;100.00;99076.98;1747823;82;21564;-67
2022/09/27 00:22:42;;;;;;;18.62;15.10;;;;;;;11.54;100.00;99072.00;1747632;82;21294;-67
2022/09/27 00:25:08;;;;;;;20.10;14.98;;;;;;;11.58;100.00;99083.23;1747783;82;21111;-65
2022/09/27 00:27:35;;;;;;;17.45;12.45;;;;;;;11.53;100.00;99079.06;1747486;82;21021;-65
2022/09/27 00:30:01;;;;;;;15.05;12.00;;;;;;;11.55;100.00;99070.60;1747704;82;21021;-66
2022/09/27 00:32:28;;;;;;;15.63;12.03;;;;;;;11.57;100.00;99070.97;1747473;82;21025;-65
2022/09/27 00:34:55;;;;;;;17.90;13.45;;;;;;;11.57;100.00;99065.69;1747693;82;21040;-68
2022/09/27 00:37:24;;;;;;;14.03;10.88;;;;;;;11.60;100.00;99068.17;1747603;82;21051;-66
2022/09/27 00:39:54;;;;;;;14.40;11.28;;;;;;;11.66;100.00;99059.88;1747597;82;21056;-65
2022/09/27 00:42:24;;;;;;;22.85;14.87;;;;;;;11.70;100.00;99050.86;1747563;82;21009;-65
2022/09/27 00:45:05;;;;;;;23.55;15.98;;;;;;;11.64;100.00;99044.17;1747245;82;21044;-66
2022/09/27 00:47:50;;;;;;;19.80;15.78;;;;;;;11.61;100.00;99042.17;1747550;82;21059;-66
2022/09/27 00:50:46;;;;;;;22.27;16.10;;;;;;;11.54;100.00;99035.92;1747578;82;21551;-65
2022/09/27 00:53:41;;;;;;;23.20;15.85;;;;;;;11.51;100.00;99030.84;1747547;82;21044;-65
2022/09/27 00:56:09;;;;;;;19.35;14.35;;;;;;;11.49;100.00;99027.45;1746396;82;21061;-65
2022/09/27 00:58:43;;;;;;;21.00;14.58;;;;;;;11.50;100.00;99025.20;1747686;82;21064;-65
2022/09/27 01:01:12;;;;;;;22.93;16.15;;;;;;;11.49;100.00;99026.60;1747745;82;21060;-65
2022/09/27 01:04:04;;;;;;;20.15;14.95;;;;;;;11.50;100.00;99023.88;1747912;82;21131;-65
2022/09/27 01:06:31;;;;;;;23.35;16.42;;;;;;;11.47;100.00;99018.77;1747732;82;21088;-66
2022/09/27 01:08:59;;;;;;;23.77;17.35;;;;;;;11.47;100.00;99008.23;1747956;82;21569;-66
2022/09/27 01:12:06;;;;;;;25.55;16.10;;;;;;;11.51;100.00;99011.55;1747576;82;21081;-66
2022/09/27 01:15:13;;;;;;;21.82;14.68;;;;;;;11.50;100.00;99002.80;1748005;82;20997;-66
2022/09/27 01:17:54;;;;;;;20.27;15.32;;;;;;;11.39;100.00;98999.06;1747619;82;21661;-66
2022/09/27 01:21:01;;;;;;;25.45;16.37;;;;;;;11.37;100.00;99004.45;1747932;82;21057;-67
2022/09/27 01:23:58;;;;;;;28.75;16.75;;;;;;;11.44;100.00;99004.94;1747572;82;21608;-66
2022/09/27 01:26:40;;;;;;;21.55;16.65;;;;;;;11.41;100.00;99003.33;1748057;82;21100;-66
2022/09/27 01:29:28;;;;;;;24.55;18.32;;;;;;;11.40;100.00;98991.07;1747913;82;21147;-66
2022/09/27 01:32:33;;;;;;;27.50;18.87;;;;;;;11.43;100.00;98991.36;1747883;82;21150;-67
2022/09/27 01:35:22;;;;;;;27.75;19.00;;;;;;;11.43;100.00;98985.61;1747752;82;21524;-65
2022/09/27 01:38:22;;;;;;;28.35;20.15;;;;;;;11.33;100.00;98975.23;1748141;82;21028;-66
2022/09/27 01:41:06;;;;;;;27.07;18.45;;;;;;;11.36;100.00;98975.05;1747930;82;21099;-65
2022/09/27 01:43:46;;;;;;;25.43;19.30;;;;;;;11.40;100.00;98972.62;1743365;82;21009;-67
2022/09/27 01:46:33;;;;;;;24.98;18.77;;;;;;;11.29;100.00;98964.49;1747510;82;21202;-67
2022/09/27 01:49:24;;;;;;;29.32;19.50;;;;;;;11.22;100.00;98966.63;1746737;82;21057;-65
2022/09/27 01:51:55;;;;;;;20.62;16.65;;;;;;;11.24;100.00;98962.60;1747694;82;21079;-66
2022/09/27 01:54:26;;;;;;;24.32;18.60;;;;;;;11.22;100.00;98964.47;1748203;82;21545;-66
2022/09/27 01:57:08;;;;;;;21.35;17.55;;;;;;;11.25;100.00;98962.97;1745256;82;21095;-66
2022/09/27 01:59:44;;;;;;;27.87;20.52;;;;;;;11.27;100.00;98950.55;1747684;82;21200;-65
2022/09/27 02:02:31;;;;;;;28.32;19.27;;;;;;;11.21;100.00;98953.09;1747491;82;21505;-65
2022/09/27 02:05:16;;;;;;;27.15;18.65;;;;;;;11.20;100.00;98950.53;1762716;80;21311;-66
2022/09/27 02:07:55;;;;;;;26.10;17.65;;;;;;;11.23;100.00;98951.70;1778512;80;21024;-66
2022/09/27 02:10:28;;;;;;;23.25;18.05;;;;;;;11.22;100.00;98949.50;1778798;80;21028;-66
2022/09/27 02:13:11;;;;;;;27.48;19.00;;;;;;;11.24;100.00;98954.70;1779358;80;21200;-66
2022/09/27 02:15:49;;;;;;;27.48;19.27;;;;;;;11.23;100.00;98946.42;1784229;80;20997;-66
2022/09/27 02:18:21;;;;;;;28.87;20.43;;;;;;;11.26;100.00;98935.69;1782859;80;21008;-66
2022/09/27 02:20:54;;;;;;;29.27;20.25;;;;;;;11.22;100.00;98950.82;1784109;80;20993;-66
2022/09/27 02:23:43;;;;;;;31.85;20.20;;;;;;;11.19;100.00;98948.38;1784500;80;21012;-65
2022/09/27 02:26:29;;;;;;;30.60;21.40;;;;;;;11.20;100.00;98953.17;1784566;80;21068;-66
2022/09/27 02:29:04;;;;;;;28.98;18.48;;;;;;;11.20;100.00;98947.90;1784373;80;21044;-65
2022/09/27 02:31:32;;;;;;;31.35;21.75;;;;;;;11.26;100.00;98938.33;1784590;80;21076;-65
2022/09/27 02:34:18;;;;;;;30.85;21.62;;;;;;;11.27;100.00;98938.69;1784390;80;21009;-65
2022/09/27 02:36:45;;;;;;;32.10;22.15;;;;;;;11.28;100.00;98941.72;1784359;80;21111;-65
2022/09/27 02:39:12;;;;;;;29.65;20.65;;;;;;;11.29;100.00;98936.81;1756428;80;21269;-66
2022/09/27 02:41:39;;;;;;;34.30;23.42;;;;;;;11.32;100.00;98930.07;1784170;80;21575;-65
2022/09/27 02:44:09;;;;;;;38.58;22.62;;;;;;;11.29;100.00;98926.27;1784271;80;21029;-66
2022/09/27 02:47:08;;;;;;;30.25;23.02;;;;;;;11.26;100.00;98919.88;1784520;80;21076;-65
2022/09/27 02:50:08;;;;;;;34.20;22.55;;;;;;;11.26;100.00;98917.24;1784331;80;21115;-66
2022/09/27 02:53:10;;;;;;;31.90;22.30;;;;;;;11.22;100.00;98915.72;1784141;80;21320;-66
2022/09/27 02:55:56;;;;;;;32.48;24.23;;;;;;;11.30;100.00;98911.70;1780123;80;21056;-66
2022/09/27 02:59:01;;;;;;;33.13;23.75;;;;;;;11.30;100.00;98905.59;1722412;80;21108;-67
2022/09/27 03:02:20;;;;;;;34.45;24.57;;;;;;;11.27;100.00;98917.61;1750985;80;21571;-65
2022/09/27 03:04:56;;;;;;;24.15;18.35;;;;;;;11.31;100.00;98909.42;1750672;81;21052;-67
2022/09/27 03:07:24;;;;;;;32.88;22.58;;;;;;;11.36;100.00;98902.56;1753331;81;21528;-69
2022/09/27 03:09:52;;;;;;;34.92;23.38;;;;;;;11.37;100.00;98904.28;1753395;81;21583;-66
2022/09/27 03:12:24;;;;;;;40.52;25.77;;;;;;;11.36;100.00;98902.56;1753238;81;20974;-65
2022/09/27 03:14:48;;;;;;;35.73;24.72;;;;;;;11.44;100.00;98892.90;1748226;81;21472;-65
2022/09/27 03:17:21;;;;;;;38.05;25.90;;;;;;;11.42;100.00;98891.66;1743552;82;21017;-65
2022/09/27 03:19:50;;;;;;;42.33;25.82;;;;;;;11.44;100.00;98895.53;1726911;82;21056;-66
2022/09/27 03:22:28;;;;;;;34.27;23.18;;;;;;;11.47;100.00;98904.09;1728696;82;21292;-66
2022/09/27 03:24:56;;;;;;;37.53;24.63;;;;;;;11.43;100.00;98894.66;1747820;82;21068;-65
2022/09/27 03:27:23;;;;;;;33.02;23.98;;;;;;;11.44;100.00;98892.42;1747560;82;21020;-66
2022/09/27 03:29:52;;;;;;;34.25;23.62;;;;;;;11.37;100.00;98884.51;1747459;82;21096;-66
2022/09/27 03:32:18;;;;;;;36.68;25.02;;;;;;;11.40;100.00;98880.36;1774630;80;21130;-66
2022/09/27 03:34:50;;;;;;;;;;;;;;;11.42;100.00;98875.84;1777794;80;21056;-66
2022/09/27 03:37:17;;;;;;;40.90;25.08;;;;;;;11.44;100.00;98873.97;1778349;80;20170;-66
2022/09/27 03:39:43;;;;;;;42.95;25.60;;;;;;;11.49;100.00;98874.53;1778741;80;21062;-67
2022/09/27 03:42:10;;;;;;;34.65;25.72;;;;;;;11.51;100.00;98877.08;1747846;80;21048;-66
2022/09/27 03:44:37;;;;;;;34.35;25.02;;;;;;;11.49;100.00;98873.21;1778331;80;21019;-65
2022/09/27 03:47:03;;;;;;;36.17;25.52;;;;;;;11.44;100.00;98877.92;1778131;80;21041;-65
2022/09/27 03:49:31;;;;;;;39.40;25.82;;;;;;;11.48;100.00;98881.20;1778745;80;21561;-66
2022/09/27 03:51:59;;;;;;;37.73;25.90;;;;;;;11.50;100.00;98870.09;1778345;80;21065;-67
2022/09/27 03:54:25;;;;;;;41.00;26.30;;;;;;;11.52;100.00;98876.97;1778184;80;21044;-66
2022/09/27 03:56:52;;;;;;;35.33;25.37;;;;;;;11.53;100.00;98865.50;1747743;82;21133;-66
2022/09/27 03:59:19;;;;;;;40.00;25.37;;;;;;;11.56;100.00;98863.14;1718478;82;21527;-65
2022/09/27 04:01:47;;;;;;;40.20;25.23;;;;;;;11.55;100.00;98860.98;1743322;82;21060;-65
2022/09/27 04:04:15;;;;;;;39.08;25.60;;;;;;;11.55;100.00;98871.53;1746337;82;21631;-66
2022/09/27 04:06:42;;;;;;;39.03;25.17;;;;;;;11.58;100.00;98873.13;1747624;82;21004;-66
2022/09/27 04:09:09;;;;;;;32.50;24.60;;;;;;;11.59;100.00;98872.66;1747587;82;21122;-66
2022/09/27 04:11:40;;;;;;;32.73;23.77;;;;;;;11.59;100.00;98872.66;1744458;82;21041;-65
2022/09/27 04:14:07;;;;;;;32.83;23.40;;;;;;;11.62;100.00;98879.91;1747467;81;21072;-67
2022/09/27 04:16:38;;;;;;;33.30;20.32;;;;;;;11.64;100.00;98870.57;1747382;82;21080;-65
2022/09/27 04:19:07;;;;;;;33.35;22.98;;;;;;;11.63;100.00;98873.69;1743311;82;21117;-67
2022/09/27 04:21:36;;;;;;;30.95;19.60;;;;;;;11.73;100.00;98875.28;1745110;82;21186;-66
2022/09/27 04:24:05;;;;;;;34.58;23.27;;;;;;;11.78;100.00;98877.19;1747479;82;21037;-66
2022/09/27 04:26:32;;;;;;;35.08;25.00;;;;;;;11.81;100.00;98878.30;1747688;82;21494;-67
2022/09/27 04:29:01;;;;;;;39.18;25.88;;;;;;;11.82;100.00;98870.75;1747537;82;21030;-67
2022/09/27 04:31:28;;;;;;;49.38;26.75;;;;;;;11.85;100.00;98875.86;1771939;80;21705;-68
2022/09/27 04:33:54;;;;;;;50.28;26.73;;;;;;;11.83;100.00;98871.15;1778410;80;21097;-65
2022/09/27 04:36:25;;;;;;;38.63;24.98;;;;;;;11.87;100.00;98861.23;1777628;80;21547;-67
2022/09/27 04:38:55;;;;;;;38.33;25.10;;;;;;;11.87;100.00;98867.41;1775860;80;21041;-66
2022/09/27 04:41:23;;;;;;;42.80;26.60;;;;;;;11.89;100.00;98860.25;1778750;80;21040;-66
2022/09/27 04:43:53;;;;;;;39.80;27.17;;;;;;;11.90;100.00;98867.69;1778845;80;21024;-66
2022/09/27 04:46:20;;;;;;;46.92;28.02;;;;;;;11.87;100.00;98867.41;1778633;80;21204;-66
2022/09/27 04:48:48;;;;;;;46.80;28.52;;;;;;;11.86;100.00;98858.23;1778863;80;21036;-66
2022/09/27 04:51:16;;;;;;;49.03;29.63;;;;;;;11.85;100.00;98858.72;1778587;80;21009;-65
2022/09/27 04:53:44;;;;;;;41.08;27.05;;;;;;;11.81;100.00;98856.36;1778585;80;21033;-67
2022/09/27 04:56:13;;;;;;;46.08;28.00;;;;;;;11.88;100.00;98844.52;1755375;80;21005;-67
2022/09/27 04:58:39;;;;;;;43.20;28.05;;;;;;;11.89;100.00;98845.75;1748037;82;21856;-66
2022/09/27 05:01:08;;;;;;;42.17;29.40;;;;;;;11.88;100.00;98841.39;1747572;82;21016;-66
2022/09/27 05:03:47;;;;;;;53.02;28.55;;;;;;;11.91;100.00;98838.55;1747897;82;21441;-67
2022/09/27 05:06:15;;;;;;;51.00;28.90;;;;;;;11.88;100.00;98836.13;1747616;82;21742;-67
2022/09/27 05:08:44;;;;;;;48.63;29.55;;;;;;;11.88;100.00;98832.16;1747814;82;21053;-66
2022/09/27 05:11:17;;;;;;;47.23;29.45;;;;;;;11.86;100.00;98830.06;1747619;82;21811;-68
2022/09/27 05:13:46;;;;;;;55.98;30.55;;;;;;;11.87;100.00;98827.84;1743284;81;21612;-66
2022/09/27 05:16:13;;;;;;;60.52;30.37;;;;;;;11.88;100.00;98818.97;1747722;81;21532;-66
2022/09/27 05:18:59;;;;;;;49.00;30.15;;;;;;;11.90;100.00;98831.59;1747748;82;21036;-67
2022/09/27 05:21:30;;;;;;;51.48;30.10;;;;;;;11.91;100.00;98827.16;1743363;82;21095;-68
2022/09/27 05:23:58;;;;;;;47.10;29.87;;;;;;;11.95;100.00;98826.87;1747894;82;21192;-67
2022/09/27 05:26:25;;;;;;;44.00;27.60;;;;;;;11.96;100.00;98828.58;1747603;82;21001;-68
2022/09/27 05:28:52;;;;;;;46.58;28.25;;;;;;;12.04;100.00;98826.77;1747597;82;21084;-66
2022/09/27 05:31:18;;;;;;;42.88;29.60;;;;;;;12.08;100.00;98828.75;1718758;82;21048;-67
2022/09/27 05:33:45;;;;;;;51.92;29.90;;;;;;;12.08;100.00;98828.75;1747678;82;21084;-66
2022/09/27 05:36:22;;;;;;;48.75;29.50;;;;;;;12.13;100.00;98822.70;1747711;82;21625;-67
2022/09/27 05:38:50;;;;;;;52.83;31.10;;;;;;;12.20;100.00;98822.67;1747652;82;21084;-70
2022/09/27 05:41:17;;;;;;;52.93;32.00;;;;;;;12.23;100.00;98823.78;1748025;82;21056;-68
2022/09/27 05:43:44;;;;;;;59.33;32.03;;;;;;;12.25;100.00;98828.49;1747671;82;21111;-68
2022/09/27 05:46:11;;;;;;;55.10;32.35;;;;;;;12.30;100.00;98828.20;1748192;82;21368;-68
2022/09/27 05:48:38;;;;;;;49.30;31.15;;;;;;;12.35;100.00;98831.38;1747747;82;21635;-68
2022/09/27 05:51:06;;;;;;;53.20;32.60;;;;;;;12.41;100.00;98834.11;1747633;82;20977;-70
2022/09/27 05:53:35;;;;;;;61.50;37.42;;;;;;;12.47;100.00;98838.52;1747618;82;21664;-67
2022/09/27 05:56:05;;;;;;;72.05;40.52;;;;;;;12.56;100.00;98840.55;1769536;80;21033;-68
2022/09/27 05:58:37;;;;;;;61.77;36.30;;;;;;;12.62;100.00;98843.25;1733791;80;21088;-68
2022/09/27 06:01:09;;;;;;;77.22;38.33;;;;;;;12.67;100.00;98841.15;1777061;80;21435;-67
2022/09/27 06:03:46;;;;;;;72.47;37.40;;;;;;;12.78;100.00;98832.52;1732908;80;21072;-67
2022/09/27 06:06:30;;;;;;;80.97;38.48;;;;;;;12.80;100.00;98836.75;1774581;80;21587;-68
2022/09/27 06:09:00;;;;;;;88.30;39.53;;;;;;;12.75;100.00;98834.89;1778630;80;21060;-68
2022/09/27 06:11:26;;;;;;;100.10;44.75;;;;;;;12.88;100.00;98834.06;1778667;80;21005;-68
2022/09/27 06:13:54;;;;;;;134.07;64.25;;;;;;;12.88;100.00;98829.63;1778496;80;21612;-67
2022/09/27 06:16:21;;;;;;;110.30;53.60;;;;;;;12.95;100.00;98834.02;1778690;80;21087;-67
2022/09/27 06:18:47;;;;;;;94.25;46.37;;;;;;;12.95;100.00;98834.89;1778730;80;21025;-67
2022/09/27 06:21:15;;;;;;;94.62;45.40;;;;;;;12.94;100.00;98834.98;1777849;80;21094;-68
2022/09/27 06:23:45;;;;;;;89.37;43.95;;;;;;;12.97;100.00;98833.45;1778127;80;21036;-68
2022/09/27 06:26:14;;;;;;;87.15;42.35;;;;;;;13.00;100.00;98839.87;1777793;80;21903;-68
2022/09/27 06:28:50;;;;;;;80.92;43.40;;;;;;;13.07;100.00;98839.82;1777616;80;21116;-67
2022/09/27 06:31:21;;;;;;;85.17;43.20;;;;;;;13.08;100.00;98834.89;1778471;80;21037;-68
2022/09/27 06:33:53;;;;;;;79.27;42.45;;;;;;;13.05;100.00;98828.50;1775683;80;21045;-67
2022/09/27 06:36:20;;;;;;;79.03;41.02;;;;;;;12.97;100.00;98828.16;1778344;80;21045;-66
2022/09/27 06:38:48;;;;;;;80.80;42.67;;;;;;;12.99;100.00;98830.23;1778664;80;22060;-67
2022/09/27 06:41:16;;;;;;;83.62;41.92;;;;;;;12.98;100.00;98825.42;1777139;80;21036;-67
2022/09/27 06:43:51;;;;;;;85.17;38.35;;;;;;;12.99;100.00;98830.23;1774918;80;21009;-67
2022/09/27 06:46:20;;;;;;;73.92;35.03;;;;;;;13.03;100.00;98833.04;1721396;80;21524;-68
2022/09/27 06:48:52;;;;;;;79.82;36.30;;;;;;;13.07;100.00;98835.86;1777315;80;21048;-67
2022/09/27 06:51:19;;;;;;;79.15;36.77;;;;;;;13.05;100.00;98833.78;1778373;80;21228;-68
2022/09/27 06:53:46;;;;;;;81.37;39.05;;;;;;;13.10;100.00;98830.83;1778577;80;21303;-66
2022/09/27 06:56:14;;;;;;;82.10;41.20;;;;;;;12.99;100.00;98829.75;1754891;80;21119;-66
2022/09/27 07:01:43;;;;;;;92.60;44.63;;;;;;;13.03;100.00;98834.36;1747770;82;21139;-69
2022/09/27 07:04:29;;;;;;;84.22;39.27;;;;;;;12.98;100.00;98836.48;1747683;82;21235;-68
2022/09/27 07:07:10;;;;;;;98.78;43.73;;;;;;;13.03;100.00;98825.59;1747058;82;21100;-67
2022/09/27 07:09:50;;;;;;;93.47;43.65;;;;;;;13.02;100.00;98820.77;1748085;82;21532;-68
2022/09/27 07:12:17;;;;;;;92.17;44.30;;;;;;;13.00;100.00;98819.56;1747883;82;21575;-67
2022/09/27 07:14:44;;;;;;;89.42;45.20;;;;;;;12.99;100.00;98806.45;1748032;81;21076;-69
2022/09/27 07:17:12;;;;;;;106.65;47.58;;;;;;;13.04;100.00;98804.33;1747443;82;21119;-68
2022/09/27 07:19:44;;;;;;;102.50;47.40;;;;;;;13.03;100.00;98798.69;1747372;82;21100;-67
2022/09/27 07:22:11;;;;;;;97.35;45.40;;;;;;;13.09;100.00;98802.69;1747751;82;21072;-67
2022/09/27 07:24:38;;;;;;;118.72;48.30;;;;;;;13.14;100.00;98801.44;1718473;82;21541;-68
2022/09/27 07:27:05;;;;;;;97.25;44.13;;;;;;;13.18;100.00;98802.06;1748018;82;21096;-68
2022/09/27 07:29:32;;;;;;;103.05;45.45;;;;;;;13.22;100.00;98804.39;1718390;82;22159;-68
2022/09/27 07:31:59;;;;;;;100.18;45.08;;;;;;;13.34;100.00;98805.84;1747741;82;21045;-68
2022/09/27 07:34:27;;;;;;;90.15;43.08;;;;;;;13.39;100.00;98806.40;1747301;82;21150;-67
2022/09/27 07:37:04;;;;;;;78.47;39.30;;;;;;;13.31;100.00;98804.75;1746500;82;21529;-69
2022/09/27 07:39:29;;;;;;;81.15;41.00;;;;;;;13.36;100.00;98806.59;1747386;82;21013;-68
2022/09/27 07:41:55;;;;;;;87.85;41.40;;;;;;;13.37;100.00;98804.33;1747806;82;21168;-68
2022/09/27 07:44:22;;;;;;;94.47;44.00;;;;;;;13.43;100.00;98803.88;1747705;82;20989;-67
2022/09/27 07:47:07;;;;;;;102.10;45.08;;;;;;;13.48;100.00;98801.79;1688808;82;21076;-68
2022/09/27 07:49:51;;;;;;;90.10;42.45;;;;;;;13.46;100.00;98807.66;1744740;82;21564;-67
2022/09/27 07:52:22;;;;;;;82.53;40.12;;;;;;;13.52;100.00;98808.53;1725440;82;21329;-67
2022/09/27 07:55:09;;;;;;;67.42;35.68;;;;;;;13.51;100.00;98820.56;1756869;80;21135;-67
2022/09/27 07:57:40;;;;;;;66.40;35.70;;;;;;;13.57;100.00;98814.81;1776086;80;21644;-68
2022/09/27 08:00:10;;;;;;;72.50;36.25;;;;;;;13.56;100.00;98814.47;1748054;80;20996;-68
2022/09/27 08:02:38;;;;;;;57.62;30.40;;;;;;;13.58;100.00;98802.81;1778436;80;21045;-68
2022/09/27 08:05:07;;;;;;;72.37;36.28;;;;;;;13.56;100.00;98795.47;1748001;80;21037;-67
2022/09/27 08:07:35;;;;;;;70.55;35.83;;;;;;;13.62;100.00;98792.88;1778769;80;21216;-68
2022/09/27 08:10:02;;;;;;;66.50;35.17;;;;;;;13.59;100.00;98782.50;1778467;80;21061;-68
2022/09/27 08:12:29;;;;;;;71.62;36.75;;;;;;;13.61;100.00;98777.95;1778588;80;21002;-68
2022/09/27 08:15:00;;;;;;;75.57;34.88;;;;;;;13.63;100.00;98781.33;1778580;80;21056;-68
2022/09/27 08:17:25;;;;;;;68.60;31.87;;;;;;;13.67;100.00;98780.17;1778322;80;21024;-67
2022/09/27 08:19:57;;;;;;;67.50;35.38;;;;;;;13.71;100.00;98778.12;1776696;80;21239;-68
2022/09/27 08:22:31;;;;;;;61.18;30.45;;;;;;;13.75;100.00;98784.90;1774495;80;21080;-67
2022/09/27 08:24:59;;;;;;;60.15;33.75;;;;;;;13.79;100.00;98788.54;1778224;80;21061;-69
2022/09/27 08:29:44;;;;;;;61.05;33.55;;;;;;;13.52;100.00;98790.02;1796256;79;22733;-67
2022/09/27 08:32:11;;;;;;;62.78;33.53;;;;;;;13.54;100.00;98798.69;1751308;81;21100;-67
2022/09/27 08:34:40;;;;;;;56.18;31.20;;;;;;;13.58;100.00;98796.69;1747988;82;21232;-69
2022/09/27 08:37:08;;;;;;;44.53;27.42;;;;;;;13.62;100.00;98799.02;1747778;82;21013;-67
2022/09/27 08:39:36;;;;;;;43.52;29.55;;;;;;;13.63;100.00;98803.81;1748165;82;21065;-68
2022/09/27 08:42:33;;;;;;;45.12;27.98;;;;;;;13.60;100.00;98798.27;1747343;82;21049;-68
2022/09/27 08:45:35;;;;;;;43.87;25.60;;;;;;;13.56;100.00;98796.78;1747674;81;20974;-67
2022/09/27 08:48:03;;;;;;;45.55;26.33;;;;;;;13.54;100.00;98795.20;1659672;86;21187;-68
2022/09/27 08:50:37;;;;;;;48.98;29.37;;;;;;;13.50;100.00;98789.27;1666717;86;21100;-68
2022/09/27 08:53:26;;;;;;;45.50;28.17;;;;;;;13.46;100.00;98790.47;1666354;86;21548;-69
2022/09/27 08:55:55;;;;;;;42.00;27.40;;;;;;;13.47;100.00;98783.38;1666625;86;21080;-68
2022/09/27 08:58:42;;;;;;;44.70;26.52;;;;;;;13.48;100.00;98785.92;1665412;85;21058;-69
2022/09/27 09:01:16;;;;;;;42.38;26.20;;;;;;;13.49;100.00;98792.05;1665469;86;21114;-67
2022/09/27 09:03:51;;;;;;;37.63;22.20;;;;;;;13.50;100.00;98785.30;1665011;86;21704;-67
2022/09/27 09:06:29;;;;;;;40.50;26.65;;;;;;;13.55;100.00;98787.17;1666534;86;21085;-67
2022/09/27 09:09:41;;;;;;;41.68;25.57;;;;;;;13.58;100.00;98781.66;1666232;86;22050;-67
2022/09/27 09:12:48;;;;;;;38.20;23.62;;;;;;;13.61;100.00;98784.08;1664968;86;21145;-67
2022/09/27 09:15:54;;;;;;;35.30;22.95;;;;;;;13.64;100.00;98783.88;1660967;86;21313;-67
2022/09/27 09:18:52;;;;;;;40.10;26.90;;;;;;;13.64;100.00;98775.94;1666705;86;21005;-66
2022/09/27 09:22:19;;;;;;;41.13;26.10;;;;;;;13.68;100.00;98775.71;1666338;86;21073;-66
2022/09/27 09:25:03;;;;;;;37.58;24.95;;;;;;;13.80;100.00;98777.47;1666416;86;21092;-67
2022/09/27 09:27:45;;;;;;;36.75;23.42;;;;;;;13.95;100.00;98769.76;1666022;86;21735;-68
2022/09/27 09:30:23;;;;;;;35.40;23.75;;;;;;;13.98;100.00;98765.55;1666004;86;21219;-67
2022/09/27 09:32:59;;;;;;;35.08;25.05;;;;;;;14.08;100.00;98771.05;1665689;85;21124;-69
2022/09/27 09:35:36;;;;;;;36.80;24.57;;;;;;;14.17;100.00;98770.83;1666099;86;21052;-66
2022/09/27 09:38:07;;;;;;;34.05;23.98;;;;;;;14.28;100.00;98766.91;1666507;86;21064;-67
2022/09/27 09:40:58;;;;;;;31.87;23.55;;;;;;;14.27;100.00;98759.45;1665961;86;21143;-67
2022/09/27 09:43:33;;;;;;;32.38;21.82;;;;;;;14.35;100.00;98764.66;1632766;86;21139;-69
2022/09/27 09:46:09;;;;;;;35.88;25.48;;;;;;;14.43;100.00;98772.89;1664925;86;21138;-66
2022/09/27 09:48:48;;;;;;;32.85;22.70;;;;;;;14.54;100.00;98776.05;1658148;86;21076;-67
2022/09/27 09:51:23;;;;;;;39.95;26.57;;;;;;;14.62;100.00;98776.36;1659626;86;21153;-68
2022/09/27 09:54:17;;;;;;;40.83;27.05;;;;;;;14.65;100.00;98776.98;1637302;86;21132;-66
2022/09/27 09:56:58;;;;;;;39.88;25.40;;;;;;;14.75;100.00;98776.29;1658200;86;21125;-68
2022/09/27 09:59:27;;;;;;;;;;;;;;;14.79;100.00;98771.97;1661144;86;21040;-67
2022/09/27 10:01:55;;;;;;;34.88;22.40;;;;;;;14.83;100.00;98754.84;1658186;86;20228;-66
2022/09/27 10:04:25;;;;;;;29.30;20.65;;;;;;;14.78;100.00;98758.33;1658503;86;21144;-67
2022/09/27 10:06:52;;;;;;;36.88;24.43;;;;;;;14.78;100.00;98763.63;1658192;86;21105;-67
2022/09/27 10:09:24;;;;;;;31.68;20.62;;;;;;;14.84;100.00;98772.45;1658463;86;21623;-68
2022/09/27 10:11:59;;;;;;;32.93;22.75;;;;;;;14.86;100.00;98775.83;1653633;86;21112;-67
2022/09/27 10:14:28;;;;;;;39.85;25.37;;;;;;;14.89;100.00;98767.64;1658409;86;21112;-68
2022/09/27 10:17:03;;;;;;;39.45;27.65;;;;;;;14.89;100.00;98767.64;1658012;86;21096;-67
2022/09/27 10:19:32;;;;;;;34.15;24.95;;;;;;;14.88;100.00;98759.80;1658253;86;21145;-67
2022/09/27 10:22:17;;;;;;;34.53;25.92;;;;;;;14.91;100.00;98762.23;1658033;86;21124;-67
2022/09/27 10:25:02;;;;;;;35.83;25.55;;;;;;;14.95;100.00;98761.50;1656663;86;21077;-66
2022/09/27 10:27:44;;;;;;;36.90;25.37;;;;;;;14.99;100.00;98761.63;1657577;86;21106;-67
2022/09/27 10:30:31;;;;;;;40.45;27.95;;;;;;;14.88;100.00;98759.34;1658440;86;21143;-68
2022/09/27 10:33:05;;;;;;;44.85;29.95;;;;;;;14.86;100.00;98755.95;1657877;86;21605;-67
2022/09/27 10:35:45;;;;;;;48.28;31.62;;;;;;;14.86;100.00;98743.16;1658574;86;21601;-67
2022/09/27 10:38:33;;;;;;;40.90;28.27;;;;;;;14.85;100.00;98742.32;1657606;86;21616;-67
2022/09/27 10:41:36;;;;;;;45.25;31.35;;;;;;;14.89;100.00;98734.99;1643420;86;21633;-66
2022/09/27 10:44:17;;;;;;;;;;;;;;;14.90;100.00;98734.02;1662058;86;21124;-66
2022/09/27 10:46:48;;;;;;;32.85;24.05;;;;;;;14.93;100.00;98730.28;1655079;86;26450;-67
2022/09/27 10:49:24;;;;;;;46.90;30.97;;;;;;;14.92;100.00;98733.91;1650290;86;21163;-67
2022/09/27 10:51:58;;;;;;;49.48;32.85;;;;;;;14.85;100.00;98741.00;1653175;86;21084;-68
2022/09/27 10:54:34;;;;;;;47.60;31.33;;;;;;;14.82;100.00;98738.59;1643182;86;21105;-69
2022/09/27 10:57:24;;;;;;;47.65;31.45;;;;;;;14.84;100.00;98735.34;1630138;88;21056;-67
2022/09/27 10:59:56;;;;;;;44.27;29.75;;;;;;;14.87;100.00;98741.73;1630221;88;21685;-68
2022/09/27 11:02:29;;;;;;;38.75;26.52;;;;;;;14.84;100.00;98743.78;1630123;86;22256;-67
2022/09/27 11:05:14;;;;;;;42.05;28.10;;;;;;;14.78;100.00;98745.08;1629719;86;21051;-68
2022/09/27 11:07:52;;;;;;;39.83;25.05;;;;;;;14.73;100.00;98743.27;1604754;88;21055;-68
2022/09/27 11:10:33;;;;;;;40.73;26.80;;;;;;;14.69;100.00;98739.16;1630418;87;21078;-69
2022/09/27 11:13:15;;;;;;;46.00;29.40;;;;;;;14.66;100.00;98740.73;1630194;87;21133;-67
2022/09/27 11:15:55;;;;;;;45.10;28.07;;;;;;;14.72;100.00;98740.24;1630289;88;21126;-68
2022/09/27 11:18:50;;;;;;;45.33;29.12;;;;;;;14.78;100.00;98734.48;1613555;88;21078;-68
2022/09/27 11:21:44;;;;;;;33.38;22.42;;;;;;;14.76;100.00;98729.78;1630122;88;22078;-68
2022/09/27 11:24:36;;;;;;;46.73;29.37;;;;;;;14.77;100.00;98718.23;1630214;87;21431;-68
2022/09/27 11:27:28;;;;;;;48.00;30.40;;;;;;;14.83;100.00;98720.39;1630140;88;21142;-67
2022/09/27 11:30:10;;;;;;;49.00;31.73;;;;;;;14.75;100.00;98720.16;1630654;88;21146;-67
2022/09/27 11:33:26;;;;;;;40.30;26.25;;;;;;;14.77;100.00;98712.93;1588296;86;21581;-67
2022/09/27 11:36:19;;;;;;;54.70;32.23;;;;;;;14.78;100.00;98710.63;1630480;86;21074;-68
2022/09/27 11:39:00;;;;;;;56.15;34.67;;;;;;;14.86;100.00;98706.92;1630257;88;21079;-67
2022/09/27 11:42:04;;;;;;;55.55;34.30;;;;;;;14.82;100.00;98700.16;1627032;88;21118;-68
2022/09/27 11:44:55;;;;;;;60.98;34.35;;;;;;;14.87;100.00;98690.53;1630577;86;21515;-67
2022/09/27 11:48:01;;;;;;;60.50;35.68;;;;;;;14.87;100.00;98681.25;1638650;86;21022;-68
2022/09/27 11:50:54;;;;;;;49.48;30.45;;;;;;;14.91;100.00;98677.41;1652073;86;21065;-68
2022/09/27 11:53:55;;;;;;;51.05;30.85;;;;;;;15.06;100.00;98688.61;1645842;86;21116;-68